CheckWX is a tool to help pilots better visualize weather data.  It is not intended as a substitute for an official pre-flight weather briefing.

07:02:54 UTC

KVAD METAR
Moody AFB Airport
Valdosta, Georgia, USA
Current

7 mins ago

KVAD 070656Z AUTO 08005KT 10SM SCT035 OVC048 12/07 A3014 RMK AO2 SLP208 T01170068 $
Observed
Dec-7 @ 06:56 UTC
Wind
  • 080° at 5 KTS
Visibility
10 SM
Flight Rules
VFR
Cloud Levels
  • Scattered at 3,500' AGL
  • Overcast at 4,800' AGL
Temperature
12°C / 54°F
Dewpoint
C / 45°F
Humidity
72%
Altimeter
30.14" Hg
Pressure
1020.62 hPa
Previous

1 hour ago

KVAD 070556Z AUTO 00000KT 10SM BKN038 OVC085 11/09 A3016 RMK AO2 SLP215 60000 T01110088 10136 20082 50002 $
Observed
Dec-7 @ 05:56 UTC
Visibility
10 SM
Flight Rules
VFR
Cloud Levels
  • Broken at 3,800' AGL
  • Overcast at 8,500' AGL
Temperature
11°C / 52°F
Dewpoint
C / 48°F
Humidity
88%
Altimeter
30.16" Hg
Pressure
1021.32 hPa
Previous

2 hours ago

KVAD 070456Z AUTO 00000KT 10SM BKN038 09/08 A3016 RMK AO2 SLP215 T00940077 402130026 $
Observed
Dec-7 @ 04:56 UTC
Visibility
10 SM
Flight Rules
VFR
Cloud Levels
  • Broken at 3,800' AGL
Temperature
C / 48°F
Dewpoint
C / 46°F
Humidity
94%
Altimeter
30.16" Hg
Pressure
1021.32 hPa